createdAt,value
2019-02-10T00:01:21.416Z,94103.85
2019-02-10T00:03:49.999Z,94098.86
2019-02-10T00:06:24.507Z,94097.64
2019-02-10T00:08:49.219Z,94091.59
2019-02-10T00:11:17.989Z,94087.86
2019-02-10T00:13:46.595Z,94073.48
2019-02-10T00:16:17.699Z,94077.16
2019-02-10T00:18:46.316Z,94070.36
2019-02-10T00:21:15.012Z,94068.72
2019-02-10T00:23:43.592Z,94056.11
2019-02-10T00:26:12.252Z,94066.02
2019-02-10T00:28:40.844Z,94065.35
2019-02-10T00:31:09.465Z,94052.85
2019-02-10T00:33:38.093Z,94046.85
2019-02-10T00:36:06.675Z,94036.94
2019-02-10T00:38:35.274Z,94039.18
2019-02-10T00:41:03.868Z,94035.71
2019-02-10T00:43:32.439Z,94031.71
2019-02-10T00:46:01.026Z,94034.14
2019-02-10T00:48:29.637Z,94039.00
2019-02-10T00:50:58.489Z,94028.44
2019-02-10T00:53:27.115Z,94024.38
2019-02-10T00:55:55.837Z,94028.73
2019-02-10T00:58:24.687Z,94016.39
2019-02-10T01:00:53.345Z,94008.94
2019-02-10T01:03:22.003Z,94011.81
2019-02-10T01:05:50.663Z,93995.13
2019-02-10T01:08:19.440Z,93989.66
2019-02-10T01:10:48.357Z,93983.77
2019-02-10T01:13:16.867Z,93985.64
2019-02-10T01:15:45.726Z,93973.97
2019-02-10T01:18:14.335Z,93971.64
2019-02-10T01:20:42.934Z,93968.87
2019-02-10T01:23:11.515Z,93970.32
2019-02-10T01:25:40.118Z,93961.57
2019-02-10T01:28:08.694Z,93950.73
2019-02-10T01:30:37.460Z,93948.37
2019-02-10T01:33:06.048Z,93955.06
2019-02-10T01:35:35.092Z,93951.67
2019-02-10T01:38:04.225Z,93946.09
2019-02-10T01:40:32.791Z,93951.45
2019-02-10T01:43:01.697Z,93951.95
2019-02-10T01:45:30.320Z,93947.05
2019-02-10T01:47:58.917Z,93933.98
2019-02-10T01:50:27.507Z,93923.13
2019-02-10T01:52:56.147Z,93924.36
2019-02-10T01:55:24.750Z,93919.52
2019-02-10T01:57:53.347Z,93901.95
2019-02-10T02:00:22.176Z,93897.06
2019-02-10T02:02:50.839Z,93893.97
2019-02-10T02:05:19.411Z,93888.31
2019-02-10T02:07:47.983Z,93889.85
2019-02-10T02:10:16.560Z,93876.44
2019-02-10T02:12:45.243Z,93872.31
2019-02-10T02:15:14.513Z,93872.28
2019-02-10T02:17:43.103Z,93863.02
2019-02-10T02:20:12.118Z,93850.39
2019-02-10T02:22:40.718Z,93839.19
2019-02-10T02:25:10.431Z,93829.27
2019-02-10T02:27:39.178Z,93823.05
2019-02-10T02:30:12.570Z,93829.00
2019-02-10T02:32:41.270Z,93825.38
2019-02-10T02:35:11.129Z,93820.76
2019-02-10T02:37:39.805Z,93803.99
2019-02-10T02:40:09.847Z,93792.91
2019-02-10T02:42:38.563Z,93783.33
2019-02-10T02:45:09.360Z,93776.41
2019-02-10T02:47:37.979Z,93784.14
2019-02-10T02:50:08.039Z,93769.31
2019-02-10T02:52:36.637Z,93763.30
2019-02-10T02:55:05.411Z,93749.58
2019-02-10T02:57:33.988Z,93737.58
2019-02-10T03:00:02.622Z,93729.00
2019-02-10T03:02:31.199Z,93724.86
2019-02-10T03:04:59.794Z,93719.30
2019-02-10T03:07:28.406Z,93697.18
2019-02-10T03:09:57.087Z,93679.47
2019-02-10T03:12:25.684Z,93681.52
2019-02-10T03:14:54.278Z,93686.45
2019-02-10T03:17:22.970Z,93675.77
2019-02-10T03:19:51.600Z,93667.17
2019-02-10T03:22:20.196Z,93654.33
2019-02-10T03:24:48.783Z,93653.91
2019-02-10T03:27:17.384Z,93652.30
2019-02-10T03:29:45.976Z,93651.77
2019-02-10T03:32:14.568Z,93646.04
2019-02-10T03:34:43.160Z,93643.02
2019-02-10T03:37:11.780Z,93636.77
2019-02-10T03:39:40.509Z,93629.39
2019-02-10T03:42:09.183Z,93623.78
2019-02-10T03:44:37.813Z,93626.41
2019-02-10T03:47:06.383Z,93614.74
2019-02-10T03:49:34.972Z,93609.16
2019-02-10T03:52:03.548Z,93601.00
2019-02-10T03:54:32.225Z,93591.56
2019-02-10T03:57:00.887Z,93582.69
2019-02-10T03:59:29.822Z,93566.98
2019-02-10T04:01:58.480Z,93552.06
2019-02-10T04:04:27.075Z,93554.57
2019-02-10T04:06:55.910Z,93540.95
2019-02-10T04:09:24.496Z,93528.12
2019-02-10T04:11:53.103Z,93527.62
2019-02-10T04:14:21.919Z,93521.45
2019-02-10T04:16:50.508Z,93516.80
2019-02-10T04:19:19.356Z,93517.05
2019-02-10T04:21:47.941Z,93513.37
2019-02-10T04:24:16.518Z,93509.11
2019-02-10T04:26:45.152Z,93506.11
2019-02-10T04:29:16.559Z,93499.97
2019-02-10T04:31:45.179Z,93495.60
2019-02-10T04:34:13.753Z,93479.52
2019-02-10T04:36:42.532Z,93477.14
2019-02-10T04:39:11.114Z,93476.41
2019-02-10T04:41:39.719Z,93469.72
2019-02-10T04:44:08.294Z,93472.56
2019-02-10T04:46:36.901Z,93461.48
2019-02-10T04:49:05.478Z,93449.92
2019-02-10T04:51:34.051Z,93450.19
2019-02-10T04:54:02.964Z,93443.55
2019-02-10T04:56:31.587Z,93438.35
2019-02-10T04:59:00.194Z,93427.83
2019-02-10T05:01:29.023Z,93423.98
2019-02-10T05:03:57.602Z,93410.11
2019-02-10T05:06:26.221Z,93391.86
2019-02-10T05:08:55.102Z,93379.47
2019-02-10T05:11:23.687Z,93379.00
2019-02-10T05:13:52.340Z,93372.19
2019-02-10T05:16:20.911Z,93367.56
2019-02-10T05:18:49.536Z,93355.84
2019-02-10T05:21:18.217Z,93353.72
2019-02-10T05:23:46.932Z,93345.44
2019-02-10T05:26:15.471Z,93345.71
2019-02-10T05:28:44.105Z,93338.02
2019-02-10T05:31:12.679Z,93339.41
2019-02-10T05:33:41.291Z,93324.30
2019-02-10T05:36:10.082Z,93323.42
2019-02-10T05:38:38.696Z,93310.05
2019-02-10T05:41:07.321Z,93297.12
2019-02-10T05:43:35.905Z,93301.27
2019-02-10T05:46:04.505Z,93298.22
2019-02-10T05:48:33.098Z,93292.75
2019-02-10T05:51:01.695Z,93285.28
2019-02-10T05:53:30.597Z,93273.08
2019-02-10T05:55:59.163Z,93260.56
2019-02-10T05:58:27.758Z,93252.20
2019-02-10T06:01:33.512Z,93253.29
2019-02-10T06:04:02.112Z,93251.92
2019-02-10T06:06:30.740Z,93236.42
2019-02-10T06:08:59.350Z,93219.38
2019-02-10T06:11:27.932Z,93217.08
2019-02-10T06:13:56.506Z,93208.64
2019-02-10T06:16:25.111Z,93186.97
2019-02-10T06:18:53.694Z,93184.09
2019-02-10T06:21:22.274Z,93172.38
2019-02-10T06:23:50.828Z,93158.20
2019-02-10T06:26:19.493Z,93161.03
2019-02-10T06:28:48.056Z,93162.80
2019-02-10T06:31:16.693Z,93128.77
2019-02-10T06:33:45.273Z,93127.44
2019-02-10T06:36:13.886Z,93132.38
2019-02-10T06:38:42.440Z,93125.62
2019-02-10T06:41:11.032Z,93119.76
2019-02-10T06:43:39.610Z,93105.78
2019-02-10T06:46:08.230Z,93103.28
2019-02-10T06:48:36.821Z,93093.11
2019-02-10T06:51:05.439Z,93085.11
2019-02-10T06:53:35.043Z,93080.31
2019-02-10T06:56:03.630Z,93068.59
2019-02-10T06:58:32.218Z,93075.09
2019-02-10T07:01:25.715Z,93058.88
2019-02-10T07:04:09.316Z,93059.40
2019-02-10T07:06:37.992Z,93050.86
2019-02-10T07:09:07.028Z,93038.52
2019-02-10T07:11:35.630Z,93040.74
2019-02-10T07:14:05.862Z,93025.06
2019-02-10T07:16:40.858Z,93024.73
2019-02-10T07:19:45.527Z,93017.27
2019-02-10T07:23:00.295Z,93018.63
2019-02-10T07:26:01.306Z,93014.25
2019-02-10T07:28:54.843Z,92986.88
2019-02-10T07:31:38.493Z,92986.52
2019-02-10T07:34:48.365Z,92984.42
2019-02-10T07:37:27.933Z,92976.83
2019-02-10T07:40:26.877Z,92975.47
2019-02-10T07:43:04.693Z,92958.14
2019-02-10T07:45:56.253Z,92956.41
2019-02-10T07:48:39.132Z,92950.77
2019-02-10T07:51:19.225Z,92936.73
2019-02-10T07:54:09.480Z,92933.73
2019-02-10T07:57:12.037Z,92926.94
2019-02-10T08:00:17.869Z,92922.63
2019-02-10T08:03:19.108Z,92904.98
2019-02-10T08:06:12.135Z,92906.33
2019-02-10T08:09:11.433Z,92912.77
2019-02-10T08:12:07.963Z,92896.67
2019-02-10T08:14:45.627Z,92874.28
2019-02-10T08:17:44.289Z,92874.28
2019-02-10T08:20:43.592Z,92868.08
2019-02-10T08:23:59.677Z,92884.30
2019-02-10T08:27:08.447Z,92870.47
2019-02-10T08:29:50.193Z,92861.33
2019-02-10T08:32:36.957Z,92853.92
2019-02-10T08:35:23.040Z,92854.52
2019-02-10T08:38:08.570Z,92856.42
2019-02-10T08:40:46.975Z,92844.75
2019-02-10T08:43:53.013Z,92851.35
2019-02-10T08:46:30.988Z,92848.78
2019-02-10T08:49:23.176Z,92833.80
2019-02-10T08:52:30.779Z,92834.19
2019-02-10T08:55:00.262Z,92825.55
2019-02-10T08:57:28.899Z,92825.55
2019-02-10T08:59:57.553Z,92823.09
2019-02-10T09:02:26.217Z,92813.33
2019-02-10T09:04:54.939Z,92802.38
2019-02-10T09:07:23.926Z,92802.38
2019-02-10T09:09:52.548Z,92804.00
2019-02-10T09:12:21.213Z,92805.85
2019-02-10T09:14:49.903Z,92805.20
2019-02-10T09:17:18.647Z,92804.56
2019-02-10T09:19:47.272Z,92795.49
2019-02-10T09:22:15.898Z,92792.77
2019-02-10T09:24:44.606Z,92792.77
2019-02-10T09:27:13.428Z,92780.59
2019-02-10T09:29:42.082Z,92762.94
2019-02-10T09:32:11.257Z,92748.88
2019-02-10T09:34:39.875Z,92758.94
2019-02-10T09:37:08.493Z,92752.15
2019-02-10T09:39:37.168Z,92752.15
2019-02-10T09:42:05.853Z,92760.08
2019-02-10T09:44:34.420Z,92754.61
2019-02-10T09:47:03.085Z,92730.48
2019-02-10T09:49:31.693Z,92730.48
2019-02-10T09:52:00.357Z,92732.23
2019-02-10T09:54:28.968Z,92724.23
2019-02-10T09:56:57.687Z,92722.31
2019-02-10T09:59:26.301Z,92721.59
2019-02-10T10:01:54.919Z,92720.41
2019-02-10T10:04:23.598Z,92726.41
2019-02-10T10:06:52.346Z,92726.41
2019-02-10T10:09:20.959Z,92712.91
2019-02-10T10:11:49.591Z,92726.45
2019-02-10T10:14:19.713Z,92726.45
2019-02-10T10:16:48.418Z,92717.97
2019-02-10T10:19:17.019Z,92717.97
2019-02-10T10:21:45.725Z,92704.84
2019-02-10T10:24:14.723Z,92721.65
2019-02-10T10:26:43.408Z,92721.65
2019-02-10T10:29:12.032Z,92703.15
2019-02-10T10:31:40.656Z,92702.36
2019-02-10T10:34:09.320Z,92702.36
2019-02-10T10:36:38.047Z,92705.00
2019-02-10T10:39:07.312Z,92690.08
2019-02-10T10:41:35.983Z,92690.08
2019-02-10T10:44:04.657Z,92687.84
2019-02-10T10:46:33.316Z,92672.11
2019-02-10T10:49:01.993Z,92673.72
2019-02-10T10:51:30.622Z,92673.72
2019-02-10T10:53:59.375Z,92654.27
2019-02-10T10:56:28.095Z,92646.55
2019-02-10T10:58:57.022Z,92646.48
2019-02-10T11:01:25.705Z,92633.75
2019-02-10T11:03:54.340Z,92630.36
2019-02-10T11:06:23.011Z,92631.95
2019-02-10T11:08:51.704Z,92631.95
2019-02-10T11:11:20.473Z,92623.55
2019-02-10T11:13:49.151Z,92616.66
2019-02-10T11:16:17.840Z,92614.92
2019-02-10T11:18:46.418Z,92602.73
2019-02-10T11:21:15.162Z,92596.67
2019-02-10T11:23:43.816Z,92594.89
2019-02-10T11:26:12.525Z,92603.48
2019-02-10T11:28:41.156Z,92581.48
2019-02-10T11:31:09.918Z,92578.45
2019-02-10T11:33:38.632Z,92578.45
2019-02-10T11:36:07.470Z,92563.88
2019-02-10T11:38:36.093Z,92542.90
2019-02-10T11:41:04.750Z,92542.90
2019-02-10T11:43:33.794Z,92545.02
2019-02-10T11:46:02.493Z,92545.02
2019-02-10T11:48:31.092Z,92537.73
2019-02-10T11:51:00.441Z,92532.06
2019-02-10T11:53:29.196Z,92532.06
2019-02-10T11:55:57.824Z,92514.26
2019-02-10T11:58:26.444Z,92518.79
2019-02-10T12:00:55.093Z,92518.79
2019-02-10T12:03:23.742Z,92500.53
2019-02-10T12:05:52.391Z,92500.53
2019-02-10T12:08:21.078Z,92499.99
2019-02-10T12:10:49.873Z,92499.99
2019-02-10T12:13:18.646Z,92493.63
2019-02-10T12:15:47.238Z,92483.56
2019-02-10T12:18:15.869Z,92487.10
2019-02-10T12:20:44.495Z,92487.10
2019-02-10T12:23:13.177Z,92491.97
2019-02-10T12:25:41.912Z,92475.69
2019-02-10T12:28:10.518Z,92475.69
2019-02-10T12:30:39.231Z,92474.47
2019-02-10T12:33:07.876Z,92474.47
2019-02-10T12:35:36.531Z,92467.41
2019-02-10T12:38:05.243Z,92467.41
2019-02-10T12:40:33.962Z,92468.54
2019-02-10T12:43:02.544Z,92461.65
2019-02-10T12:45:31.613Z,92458.48
2019-02-10T12:48:00.401Z,92458.48
2019-02-10T12:50:29.257Z,92449.61
2019-02-10T12:52:58.210Z,92448.52
2019-02-10T12:55:27.329Z,92446.84
2019-02-10T12:57:56.048Z,92447.70
2019-02-10T13:00:24.833Z,92447.70
2019-02-10T13:02:53.485Z,92446.11
2019-02-10T13:05:22.092Z,92433.67
2019-02-10T13:07:50.697Z,92430.44
2019-02-10T13:10:19.400Z,92430.44
2019-02-10T13:12:48.045Z,92424.56
2019-02-10T13:15:16.805Z,92422.52
2019-02-10T13:17:45.502Z,92420.64
2019-02-10T13:20:14.307Z,92415.39
2019-02-10T13:22:43.028Z,92415.39
2019-02-10T13:25:11.810Z,92414.92
2019-02-10T13:27:40.598Z,92412.34
2019-02-10T13:30:10.939Z,92410.56
2019-02-10T13:32:39.571Z,92413.03
2019-02-10T13:35:08.359Z,92428.16
2019-02-10T13:37:37.033Z,92428.16
2019-02-10T13:40:16.224Z,92430.67
2019-02-10T13:42:38.541Z,92456.75
2019-02-10T13:45:07.522Z,92456.75
2019-02-10T13:47:36.238Z,92451.20
2019-02-10T13:50:05.762Z,92452.03
2019-02-10T13:52:34.435Z,92450.98
2019-02-10T13:55:03.314Z,92447.03
2019-02-10T13:57:32.215Z,92447.03
2019-02-10T14:00:00.976Z,92447.36
2019-02-10T14:02:29.605Z,92455.42
2019-02-10T14:04:59.044Z,92463.92
2019-02-10T14:07:27.800Z,92463.92
2019-02-10T14:09:56.535Z,92473.94
2019-02-10T14:12:25.261Z,92473.94
2019-02-10T14:14:53.932Z,92464.11
2019-02-10T14:17:22.682Z,92464.11
2019-02-10T14:19:51.375Z,92473.55
2019-02-10T14:22:19.994Z,92469.00
2019-02-10T14:24:48.623Z,92473.11
2019-02-10T14:27:17.269Z,92472.19
2019-02-10T14:29:45.939Z,92472.27
2019-02-10T14:32:14.651Z,92471.55
2019-02-10T14:34:43.356Z,92481.53
2019-02-10T14:37:12.026Z,92481.17
2019-02-10T14:39:40.640Z,92482.34
2019-02-10T14:42:09.306Z,92485.37
2019-02-10T14:44:37.886Z,92484.56
2019-02-10T14:47:06.486Z,92476.65
2019-02-10T14:49:35.125Z,92487.32
2019-02-10T14:52:03.741Z,92492.61
2019-02-10T14:54:32.353Z,92502.40
2019-02-10T14:57:01.212Z,92490.74
2019-02-10T14:59:29.836Z,92497.83
2019-02-10T15:04:26.038Z,92491.13
2019-02-10T15:06:54.682Z,92495.42
2019-02-10T15:09:23.357Z,92495.31
2019-02-10T15:11:51.970Z,92495.71
2019-02-10T15:14:20.604Z,92493.60
2019-02-10T15:16:49.262Z,92496.00
2019-02-10T15:19:17.959Z,92491.22
2019-02-10T15:21:46.535Z,92489.12
2019-02-10T15:24:15.220Z,92488.97
2019-02-10T15:26:43.814Z,92483.69
2019-02-10T15:29:12.497Z,92488.42
2019-02-10T15:31:41.177Z,92482.27
2019-02-10T15:34:09.854Z,92475.43
2019-02-10T15:36:38.426Z,92491.22
2019-02-10T15:39:07.106Z,92495.73
2019-02-10T15:41:35.714Z,92491.48
2019-02-10T15:44:04.416Z,92488.55
2019-02-10T15:46:34.027Z,92480.29
2019-02-10T15:49:02.700Z,92491.73
2019-02-10T15:51:36.890Z,92494.47
2019-02-10T15:54:01.710Z,92495.10
2019-02-10T15:56:30.326Z,92502.58
2019-02-10T15:58:59.005Z,92505.59
2019-02-10T16:01:27.719Z,92496.02
2019-02-10T16:03:56.318Z,92504.61
2019-02-10T16:06:25.005Z,92499.05
2019-02-10T16:08:53.616Z,92516.05
2019-02-10T16:11:22.297Z,92520.06
2019-02-10T16:13:50.887Z,92528.08
2019-02-10T16:16:19.485Z,92531.78
2019-02-10T16:18:48.132Z,92529.44
2019-02-10T16:21:16.941Z,92542.68
2019-02-10T16:23:45.551Z,92529.41
2019-02-10T16:26:14.376Z,92532.27
2019-02-10T16:28:44.546Z,92532.91
2019-02-10T16:31:13.092Z,92533.07
2019-02-10T16:33:42.427Z,92533.95
2019-02-10T16:36:11.033Z,92526.53
2019-02-10T16:38:39.703Z,92523.70
2019-02-10T16:41:08.245Z,92520.30
2019-02-10T16:43:37.087Z,92519.78
2019-02-10T16:46:05.686Z,92524.69
2019-02-10T16:48:34.326Z,92525.91
2019-02-10T16:51:02.971Z,92526.81
2019-02-10T16:53:31.573Z,92536.83
2019-02-10T16:56:00.170Z,92530.78
2019-02-10T16:58:28.733Z,92538.97
2019-02-10T17:00:57.309Z,92539.35
2019-02-10T17:03:25.920Z,92544.96
2019-02-10T17:05:54.576Z,92547.40
2019-02-10T17:08:23.438Z,92548.27
2019-02-10T17:10:52.107Z,92549.47
2019-02-10T17:13:20.696Z,92552.03
2019-02-10T17:15:49.295Z,92553.17
2019-02-10T17:18:17.904Z,92554.28
2019-02-10T17:20:46.520Z,92562.87
2019-02-10T17:23:15.114Z,92557.91
2019-02-10T17:25:43.715Z,92571.94
2019-02-10T17:28:12.321Z,92571.06
2019-02-10T17:30:40.941Z,92579.74
2019-02-10T17:33:09.821Z,92587.16
2019-02-10T17:35:38.430Z,92580.69
2019-02-10T17:38:07.023Z,92588.33
2019-02-10T17:40:38.665Z,92590.52
2019-02-10T17:43:07.258Z,92602.59
2019-02-10T17:45:35.905Z,92604.90
2019-02-10T17:48:04.504Z,92600.91
2019-02-10T17:50:33.088Z,92596.79
2019-02-10T17:53:01.686Z,92601.52
2019-02-10T17:55:30.272Z,92624.32
2019-02-10T17:57:58.861Z,92617.21
2019-02-10T18:00:31.403Z,92624.30
2019-02-10T18:03:00.003Z,92616.88
2019-02-10T18:05:28.582Z,92628.37
2019-02-10T18:07:57.204Z,92622.92
2019-02-10T18:10:25.785Z,92633.77
2019-02-10T18:12:54.375Z,92632.47
2019-02-10T18:15:40.582Z,92631.83
2019-02-10T18:18:16.078Z,92624.11
2019-02-10T18:20:54.926Z,92628.48
2019-02-10T18:23:45.648Z,92631.00
2019-02-10T18:26:31.930Z,92634.46
2019-02-10T18:29:13.312Z,92641.78
2019-02-10T18:31:51.552Z,92649.64
2019-02-10T18:34:26.907Z,92649.12
2019-02-10T18:37:03.816Z,92647.43
2019-02-10T18:39:40.234Z,92643.91
2019-02-10T18:42:40.122Z,92642.25
2019-02-10T18:45:26.571Z,92647.03
2019-02-10T18:48:12.816Z,92645.80
2019-02-10T18:50:57.476Z,92650.84
2019-02-10T18:53:48.092Z,92651.58
2019-02-10T18:56:31.461Z,92657.62
2019-02-10T18:59:10.530Z,92658.61
2019-02-10T19:02:07.009Z,92661.06
2019-02-10T19:04:52.926Z,92665.61
2019-02-10T19:07:33.796Z,92672.00
2019-02-10T19:10:20.148Z,92674.98
2019-02-10T19:13:06.439Z,92677.94
2019-02-10T19:15:59.227Z,92681.81
2019-02-10T19:18:33.824Z,92675.52
2019-02-10T19:21:20.117Z,92677.92
2019-02-10T19:24:06.395Z,92686.23
2019-02-10T19:26:57.322Z,92692.43
2019-02-10T19:29:43.081Z,92685.50
2019-02-10T19:32:29.579Z,92689.81
2019-02-10T19:35:20.297Z,92683.89
2019-02-10T19:38:06.673Z,92696.11
2019-02-10T19:40:51.309Z,92704.70
2019-02-10T19:43:40.060Z,92706.28
2019-02-10T19:46:43.290Z,92723.20
2019-02-10T19:49:27.191Z,92736.64
2019-02-10T19:52:26.788Z,92740.72
2019-02-10T19:55:02.989Z,92743.77
2019-02-10T19:57:49.218Z,92750.47
2019-02-10T20:00:32.395Z,92754.02
2019-02-10T20:03:18.697Z,92760.44
2019-02-10T20:06:05.080Z,92768.89
2019-02-10T20:08:49.796Z,92772.93
2019-02-10T20:11:37.465Z,92769.47
2019-02-10T20:14:21.198Z,92779.19
2019-02-10T20:17:11.875Z,92786.19
2019-02-10T20:20:08.130Z,92790.84
2019-02-10T20:23:04.723Z,92805.33
2019-02-10T20:25:52.567Z,92808.62
2019-02-10T20:28:46.152Z,92811.34
2019-02-10T20:31:24.538Z,92824.10
2019-02-10T20:36:49.816Z,92827.23
2019-02-10T20:39:28.278Z,92833.48
2019-02-10T20:42:18.170Z,92839.42
2019-02-10T20:45:04.768Z,92844.70
2019-02-10T20:47:51.005Z,92842.70
2019-02-10T20:50:35.708Z,92851.16
2019-02-10T20:53:20.368Z,92859.34
2019-02-10T20:56:20.224Z,92871.84
2019-02-10T20:59:03.682Z,92866.75
2019-02-10T21:01:50.161Z,92871.88
2019-02-10T21:04:25.976Z,92881.91
2019-02-10T21:07:08.216Z,92882.91
2019-02-10T21:09:54.927Z,92888.82
2019-02-10T21:12:35.801Z,92902.14
2019-02-10T21:15:39.080Z,92904.41
2019-02-10T21:18:23.707Z,92916.34
2019-02-10T21:21:14.848Z,92933.91
2019-02-10T21:24:01.299Z,92925.47
2019-02-10T21:26:47.983Z,92940.27
2019-02-10T21:29:38.743Z,92944.20
2019-02-10T21:32:14.532Z,92960.64
2019-02-10T21:35:02.208Z,92961.45
2019-02-10T21:37:42.273Z,92965.14
2019-02-10T21:40:19.210Z,92971.86
2019-02-10T21:42:59.731Z,92985.77
2019-02-10T21:45:50.259Z,92989.65
2019-02-10T21:48:25.444Z,92999.39
2019-02-10T21:50:54.036Z,93003.47
2019-02-10T21:53:22.673Z,93008.84
2019-02-10T21:55:51.494Z,93014.28
2019-02-10T21:58:20.086Z,93018.60
2019-02-10T22:00:48.709Z,93031.64
2019-02-10T22:03:17.313Z,93035.80
2019-02-10T22:05:45.925Z,93041.19
2019-02-10T22:08:14.815Z,93052.92
2019-02-10T22:10:43.426Z,93060.64
2019-02-10T22:13:12.058Z,93053.73
2019-02-10T22:15:40.655Z,93064.27
2019-02-10T22:18:09.305Z,93069.64
2019-02-10T22:20:37.889Z,93078.53
2019-02-10T22:23:06.483Z,93084.75
2019-02-10T22:25:35.174Z,93087.01
2019-02-10T22:28:03.767Z,93091.59
2019-02-10T22:30:32.355Z,93106.03
2019-02-10T22:33:01.094Z,93118.96
2019-02-10T22:35:29.701Z,93112.66
2019-02-10T22:37:58.292Z,93119.57
2019-02-10T22:40:26.904Z,93135.96
2019-02-10T22:42:55.518Z,93153.48
2019-02-10T22:45:24.133Z,93158.85
2019-02-10T22:47:52.750Z,93164.75
2019-02-10T22:50:21.343Z,93169.78
2019-02-10T22:52:49.941Z,93171.69
2019-02-10T22:55:18.833Z,93182.05
2019-02-10T22:57:47.473Z,93183.79
2019-02-10T23:00:36.806Z,93198.04
2019-02-10T23:03:05.898Z,93203.30
2019-02-10T23:05:34.679Z,93226.88
2019-02-10T23:08:03.304Z,93221.64
2019-02-10T23:10:31.896Z,93228.63
2019-02-10T23:13:00.479Z,93242.52
2019-02-10T23:15:29.084Z,93242.17
2019-02-10T23:17:57.685Z,93247.87
2019-02-10T23:20:26.288Z,93266.02
2019-02-10T23:22:54.937Z,93271.09
2019-02-10T23:25:23.543Z,93285.55
2019-02-10T23:27:52.127Z,93283.33
2019-02-10T23:30:20.729Z,93289.11
2019-02-10T23:32:49.336Z,93304.13
2019-02-10T23:35:17.995Z,93312.75
2019-02-10T23:37:46.623Z,93319.41
2019-02-10T23:40:15.210Z,93321.25
2019-02-10T23:42:43.806Z,93327.79
2019-02-10T23:45:12.484Z,93338.63
2019-02-10T23:47:41.066Z,93358.71
2019-02-10T23:50:09.742Z,93360.34
2019-02-10T23:52:38.426Z,93383.64
2019-02-10T23:55:07.088Z,93386.52
2019-02-10T23:57:35.690Z,93395.48
